Time;durP1;ratioP1;P1;durP2;ratioP2;P2;SDS_P1;SDS_P2;PMS_P1;PMS_P2;Temp;Humidity;BMP_temperature;BMP_pressure;BME280_temperature;BME280_humidity;BME280_pressure;Samples;Min_cycle;Max_cycle;Signal;HPM_P1;HPM_P2
2022/03/15 00:00:25;;;;;;;19.90;12.30;;;;;;;;;;5031392;28;20418;-59
2022/03/15 00:02:51;;;;;;;18.85;11.13;;;;;;;;;;5013682;28;20045;-61
2022/03/15 00:05:18;;;;;;;15.55;11.23;;;;;;;;;;5031621;28;20073;-61
2022/03/15 00:07:44;;;;;;;20.17;13.40;;;;;;;;;;5031349;28;20132;-60
2022/03/15 00:10:15;;;;;;;21.00;11.98;;;;;;;;;;5031424;28;20049;-60
2022/03/15 00:12:42;;;;;;;21.60;14.02;;;;;;;;;;5031802;28;20509;-59
2022/03/15 00:15:08;;;;;;;21.15;13.85;;;;;;;;;;5031790;28;20453;-59
2022/03/15 00:17:35;;;;;;;21.67;12.20;;;;;;;;;;5031508;28;20467;-59
2022/03/15 00:20:02;;;;;;;14.95;9.23;;;;;;;;;;5031300;28;20094;-59
2022/03/15 00:22:29;;;;;;;18.35;10.32;;;;;;;;;;5030935;28;20405;-58
2022/03/15 00:24:55;;;;;;;15.00;9.13;;;;;;;;;;5030964;28;20120;-63
2022/03/15 00:27:21;;;;;;;14.68;9.30;;;;;;;;;;5031681;28;20474;-64
2022/03/15 00:29:48;;;;;;;15.23;8.55;;;;;;;;;;5031388;28;20147;-61
2022/03/15 00:32:17;;;;;;;13.65;8.75;;;;;;;;;;5030671;28;20060;-62
2022/03/15 00:34:43;;;;;;;13.65;9.25;;;;;;;;;;5031291;28;20041;-63
2022/03/15 00:37:09;;;;;;;12.15;9.75;;;;;;;;;;5031437;28;20061;-63
2022/03/15 00:39:35;;;;;;;10.77;8.63;;;;;;;;;;5031079;28;20406;-62
2022/03/15 00:42:02;;;;;;;16.65;9.70;;;;;;;;;;5033237;28;20060;-62
2022/03/15 00:44:28;;;;;;;17.95;9.77;;;;;;;;;;5034796;28;20124;-63
2022/03/15 00:46:54;;;;;;;17.80;10.60;;;;;;;;;;5034077;28;20045;-61
2022/03/15 00:49:20;;;;;;;13.88;9.70;;;;;;;;;;5034309;28;20038;-62
2022/03/15 00:51:46;;;;;;;11.82;9.30;;;;;;;;;;5034017;28;20128;-63
2022/03/15 00:54:12;;;;;;;18.35;10.00;;;;;;;;;;5034373;28;20103;-61
2022/03/15 00:56:38;;;;;;;14.13;9.80;;;;;;;;;;5034101;28;20045;-62
2022/03/15 00:59:04;;;;;;;13.93;10.23;;;;;;;;;;5033975;28;20049;-62
2022/03/15 01:01:31;;;;;;;20.15;11.90;;;;;;;;;;5033905;28;20085;-62
2022/03/15 01:03:58;;;;;;;16.13;11.45;;;;;;;;;;5034199;28;20052;-62
2022/03/15 01:06:24;;;;;;;17.55;11.30;;;;;;;;;;5034252;28;20068;-61
2022/03/15 01:08:50;;;;;;;15.70;10.48;;;;;;;;;;5034185;28;20038;-64
2022/03/15 01:11:16;;;;;;;13.43;9.23;;;;;;;;;;5033698;28;20077;-64
2022/03/15 01:13:42;;;;;;;14.43;9.70;;;;;;;;;;5034177;28;20037;-62
2022/03/15 01:16:09;;;;;;;15.32;10.30;;;;;;;;;;5034195;28;20048;-64
2022/03/15 01:18:35;;;;;;;14.60;9.70;;;;;;;;;;5034049;28;20417;-61
2022/03/15 01:21:02;;;;;;;12.23;9.95;;;;;;;;;;5033851;28;20080;-59
2022/03/15 01:23:28;;;;;;;13.70;9.93;;;;;;;;;;5033839;28;20087;-58
2022/03/15 01:25:55;;;;;;;13.32;10.10;;;;;;;;;;5015741;28;20084;-60
2022/03/15 01:28:22;;;;;;;17.25;10.18;;;;;;;;;;5034065;28;20045;-60
2022/03/15 01:30:48;;;;;;;12.15;9.57;;;;;;;;;;5034426;28;20113;-60
2022/03/15 01:33:14;;;;;;;9.82;8.52;;;;;;;;;;5034434;28;20048;-61
2022/03/15 01:35:40;;;;;;;16.58;8.95;;;;;;;;;;5033657;28;20037;-61
2022/03/15 01:38:06;;;;;;;11.05;8.80;;;;;;;;;;5033492;28;20044;-61
2022/03/15 01:40:32;;;;;;;13.93;9.60;;;;;;;;;;5033943;28;20045;-61
2022/03/15 01:42:58;;;;;;;12.13;9.50;;;;;;;;;;5033453;28;20046;-60
2022/03/15 01:45:32;;;;;;;10.35;8.35;;;;;;;;;;5033666;28;20103;-59
2022/03/15 01:47:58;;;;;;;11.85;9.27;;;;;;;;;;5033909;28;20072;-60
2022/03/15 01:50:24;;;;;;;12.00;9.05;;;;;;;;;;5033736;28;20248;-59
2022/03/15 01:52:50;;;;;;;10.10;8.50;;;;;;;;;;5031975;28;20049;-59
2022/03/15 01:55:16;;;;;;;11.05;8.38;;;;;;;;;;5019529;28;20107;-60
2022/03/15 01:57:43;;;;;;;9.77;8.13;;;;;;;;;;5032961;28;20175;-60
2022/03/15 02:00:09;;;;;;;12.85;9.70;;;;;;;;;;5033339;28;20411;-60
2022/03/15 02:02:35;;;;;;;11.27;9.15;;;;;;;;;;5033152;28;20042;-59
2022/03/15 02:05:01;;;;;;;13.88;9.20;;;;;;;;;;5033742;28;20099;-60
2022/03/15 02:07:27;;;;;;;13.35;9.88;;;;;;;;;;5033069;28;20099;-65
2022/03/15 02:09:54;;;;;;;11.75;9.57;;;;;;;;;;5033458;28;20053;-61
2022/03/15 02:12:20;;;;;;;12.02;8.93;;;;;;;;;;5015160;28;20501;-60
2022/03/15 02:14:46;;;;;;;11.27;9.13;;;;;;;;;;5033505;28;20069;-62
2022/03/15 02:17:12;;;;;;;11.63;9.00;;;;;;;;;;5015345;28;20461;-65
2022/03/15 02:19:39;;;;;;;13.23;9.63;;;;;;;;;;5032909;28;20092;-62
2022/03/15 02:22:05;;;;;;;14.80;10.15;;;;;;;;;;5032541;28;20136;-63
2022/03/15 02:24:31;;;;;;;13.98;10.52;;;;;;;;;;5032691;28;20574;-64
2022/03/15 02:26:58;;;;;;;13.93;9.95;;;;;;;;;;5015128;28;20106;-62
2022/03/15 02:29:24;;;;;;;14.73;10.88;;;;;;;;;;5032784;28;20417;-62
2022/03/15 02:31:50;;;;;;;10.80;9.25;;;;;;;;;;5033020;28;20552;-62
2022/03/15 02:34:19;;;;;;;9.95;8.07;;;;;;;;;;5032818;28;20041;-62
2022/03/15 02:36:45;;;;;;;9.68;7.97;;;;;;;;;;5032516;28;20068;-62
2022/03/15 02:39:11;;;;;;;9.55;8.43;;;;;;;;;;5032339;28;20041;-62
2022/03/15 02:41:37;;;;;;;10.32;8.15;;;;;;;;;;5014509;28;20057;-64
2022/03/15 02:44:04;;;;;;;9.38;8.32;;;;;;;;;;5032417;28;20079;-63
2022/03/15 02:46:31;;;;;;;8.73;7.80;;;;;;;;;;5032181;28;20041;-60
2022/03/15 02:48:57;;;;;;;12.18;9.70;;;;;;;;;;5032269;28;20509;-62
2022/03/15 02:51:24;;;;;;;9.75;8.73;;;;;;;;;;5032251;28;20085;-62
2022/03/15 02:53:52;;;;;;;10.32;8.80;;;;;;;;;;5032404;28;20042;-62
2022/03/15 02:56:19;;;;;;;8.23;7.43;;;;;;;;;;5033018;28;20080;-61
2022/03/15 02:58:45;;;;;;;8.25;7.45;;;;;;;;;;5032689;28;20072;-63
2022/03/15 03:01:11;;;;;;;8.45;7.47;;;;;;;;;;5032457;28;20068;-60
2022/03/15 03:03:38;;;;;;;9.75;8.15;;;;;;;;;;5031307;28;20128;-60
2022/03/15 03:06:04;;;;;;;8.43;7.68;;;;;;;;;;5032292;28;20091;-60
2022/03/15 03:08:30;;;;;;;8.63;7.75;;;;;;;;;;5031739;28;20049;-62
2022/03/15 03:10:57;;;;;;;8.55;7.65;;;;;;;;;;5032105;28;20045;-59
2022/03/15 03:13:25;;;;;;;8.68;7.80;;;;;;;;;;5032143;28;20038;-60
2022/03/15 03:15:54;;;;;;;10.95;7.97;;;;;;;;;;5032324;28;20522;-60
2022/03/15 03:18:20;;;;;;;9.93;8.05;;;;;;;;;;5031965;28;20512;-59
2022/03/15 03:20:47;;;;;;;12.38;9.18;;;;;;;;;;5014645;28;20041;-60
2022/03/15 03:23:14;;;;;;;10.73;8.98;;;;;;;;;;5031444;28;20049;-58
2022/03/15 03:25:40;;;;;;;11.55;9.13;;;;;;;;;;5032209;28;20522;-58
2022/03/15 03:28:08;;;;;;;12.70;8.50;;;;;;;;;;5031966;28;20549;-59
2022/03/15 03:30:37;;;;;;;9.93;8.90;;;;;;;;;;5032324;28;20503;-59
2022/03/15 03:33:03;;;;;;;10.63;7.95;;;;;;;;;;5032160;28;20406;-58
2022/03/15 03:35:30;;;;;;;15.02;9.05;;;;;;;;;;5032400;28;20221;-58
2022/03/15 03:37:56;;;;;;;9.88;7.88;;;;;;;;;;5032142;28;20052;-61
2022/03/15 03:40:23;;;;;;;10.65;9.13;;;;;;;;;;5032266;28;20518;-60
2022/03/15 03:42:49;;;;;;;13.23;9.27;;;;;;;;;;5031711;28;20124;-60
2022/03/15 03:45:15;;;;;;;10.50;8.10;;;;;;;;;;5014644;28;20052;-63
2022/03/15 03:47:41;;;;;;;9.50;8.07;;;;;;;;;;5031967;28;20060;-60
2022/03/15 03:50:09;;;;;;;9.43;8.35;;;;;;;;;;5032357;28;20466;-60
2022/03/15 03:52:36;;;;;;;9.02;8.02;;;;;;;;;;5031851;28;20088;-59
2022/03/15 03:55:02;;;;;;;8.43;7.40;;;;;;;;;;5031848;28;20113;-62
2022/03/15 03:57:29;;;;;;;9.68;8.18;;;;;;;;;;5031873;28;20073;-59
2022/03/15 03:59:55;;;;;;;7.88;7.25;;;;;;;;;;5014204;28;20565;-59
2022/03/15 04:02:21;;;;;;;10.35;7.80;;;;;;;;;;5031939;28;20048;-60
2022/03/15 04:04:47;;;;;;;8.35;7.55;;;;;;;;;;5031945;28;20037;-60
2022/03/15 04:07:14;;;;;;;9.23;8.30;;;;;;;;;;5014392;28;20049;-60
2022/03/15 04:09:40;;;;;;;8.98;8.07;;;;;;;;;;5031502;28;20494;-59
2022/03/15 04:12:07;;;;;;;8.93;7.88;;;;;;;;;;5031480;28;20406;-59
2022/03/15 04:14:36;;;;;;;11.32;7.43;;;;;;;;;;5031306;28;20048;-59
2022/03/15 04:17:07;;;;;;;8.77;7.90;;;;;;;;;;5034706;28;20109;-59
2022/03/15 04:19:33;;;;;;;8.77;7.93;;;;;;;;;;5035328;28;20068;-59
2022/03/15 04:21:59;;;;;;;11.85;8.20;;;;;;;;;;5035760;28;20049;-58
2022/03/15 04:24:26;;;;;;;10.07;8.40;;;;;;;;;;5035348;28;20125;-58
2022/03/15 04:26:52;;;;;;;10.95;8.88;;;;;;;;;;5035238;28;20041;-59
2022/03/15 04:29:19;;;;;;;10.13;8.88;;;;;;;;;;5017696;28;20044;-59
2022/03/15 04:31:45;;;;;;;14.77;9.57;;;;;;;;;;5034718;28;20098;-58
2022/03/15 04:34:11;;;;;;;10.77;9.13;;;;;;;;;;5034854;28;20084;-58
2022/03/15 04:36:39;;;;;;;11.57;9.27;;;;;;;;;;5034439;28;20051;-59
2022/03/15 04:39:05;;;;;;;12.25;9.13;;;;;;;;;;5034692;28;20526;-59
2022/03/15 04:41:31;;;;;;;14.63;12.02;;;;;;;;;;5034476;28;20450;-58
2022/03/15 04:43:57;;;;;;;12.23;9.25;;;;;;;;;;5034494;28;20111;-59
2022/03/15 04:46:23;;;;;;;14.07;10.57;;;;;;;;;;5034964;28;20529;-57
2022/03/15 04:48:49;;;;;;;13.60;10.25;;;;;;;;;;5034879;28;20533;-59
2022/03/15 04:51:15;;;;;;;15.38;10.93;;;;;;;;;;5034461;28;20045;-58
2022/03/15 04:53:41;;;;;;;14.55;10.50;;;;;;;;;;5034860;28;20045;-60
2022/03/15 04:56:08;;;;;;;11.95;9.43;;;;;;;;;;5034477;28;20046;-59
2022/03/15 04:58:34;;;;;;;13.52;10.82;;;;;;;;;;5034462;28;20081;-60
2022/03/15 05:01:00;;;;;;;17.67;10.82;;;;;;;;;;5034691;28;20038;-59
2022/03/15 05:03:26;;;;;;;20.42;14.27;;;;;;;;;;5034525;28;20044;-60
2022/03/15 05:05:52;;;;;;;20.00;12.25;;;;;;;;;;5034658;28;20124;-60
2022/03/15 05:08:18;;;;;;;21.95;14.15;;;;;;;;;;5035138;28;20044;-59
2022/03/15 05:13:29;;;;;;;20.05;13.77;;;;;;;;;;5034669;28;20046;-59
2022/03/15 05:15:55;;;;;;;16.10;11.07;;;;;;;;;;5034500;28;20041;-60
2022/03/15 05:18:23;;;;;;;17.60;12.57;;;;;;;;;;5034465;28;20052;-60
2022/03/15 05:20:49;;;;;;;19.33;13.75;;;;;;;;;;5034264;28;20045;-60
2022/03/15 05:23:16;;;;;;;24.52;16.10;;;;;;;;;;5033947;28;20604;-59
2022/03/15 05:25:42;;;;;;;18.33;12.05;;;;;;;;;;5034475;28;20042;-59
2022/03/15 05:28:08;;;;;;;27.65;16.60;;;;;;;;;;5033589;28;20048;-60
2022/03/15 05:30:35;;;;;;;19.05;13.95;;;;;;;;;;5034439;28;20571;-59
2022/03/15 05:33:01;;;;;;;25.20;16.70;;;;;;;;;;5034247;28;20052;-58
2022/03/15 05:35:27;;;;;;;23.13;16.42;;;;;;;;;;5033548;28;20072;-59
2022/03/15 05:37:53;;;;;;;32.50;18.83;;;;;;;;;;5033914;28;20054;-59
2022/03/15 05:40:20;;;;;;;29.15;16.55;;;;;;;;;;5034346;28;20041;-60
2022/03/15 05:42:46;;;;;;;46.58;28.52;;;;;;;;;;5033956;28;20050;-62
2022/03/15 05:45:13;;;;;;;39.88;25.23;;;;;;;;;;5034063;28;20049;-59
2022/03/15 05:47:39;;;;;;;30.38;20.00;;;;;;;;;;5016347;28;20045;-58
2022/03/15 05:50:06;;;;;;;32.72;20.95;;;;;;;;;;5033735;28;20076;-60
2022/03/15 05:52:32;;;;;;;36.60;24.48;;;;;;;;;;5034060;28;20420;-62
2022/03/15 05:54:58;;;;;;;50.97;29.55;;;;;;;;;;5034765;28;20041;-63
2022/03/15 05:57:24;;;;;;;47.58;28.88;;;;;;;;;;5032984;28;20090;-63
2022/03/15 05:59:50;;;;;;;42.38;26.83;;;;;;;;;;4996948;28;20376;-63
2022/03/15 06:02:16;;;;;;;46.45;28.05;;;;;;;;;;5028147;28;20046;-62
2022/03/15 06:04:43;;;;;;;44.13;26.90;;;;;;;;;;5023439;28;20037;-63
2022/03/15 06:07:09;;;;;;;50.13;31.63;;;;;;;;;;5022394;28;20133;-64
2022/03/15 06:09:35;;;;;;;59.53;34.72;;;;;;;;;;5045253;22;20170;-61
2022/03/15 06:12:03;;;;;;;56.28;32.88;;;;;;;;;;5054473;28;20405;-63
2022/03/15 06:14:29;;;;;;;49.42;29.45;;;;;;;;;;5052577;28;20097;-62
2022/03/15 06:16:55;;;;;;;64.97;37.35;;;;;;;;;;5018263;28;20047;-63
2022/03/15 06:19:21;;;;;;;52.83;32.03;;;;;;;;;;5053391;28;20036;-63
2022/03/15 06:21:47;;;;;;;67.10;37.20;;;;;;;;;;5052554;28;20128;-64
2022/03/15 06:24:13;;;;;;;51.72;30.80;;;;;;;;;;5049230;28;20047;-63
2022/03/15 06:26:42;;;;;;;57.10;34.13;;;;;;;;;;5039109;28;20073;-64
2022/03/15 06:29:08;;;;;;;45.92;28.15;;;;;;;;;;5032934;28;20055;-63
2022/03/15 06:31:34;;;;;;;49.53;30.80;;;;;;;;;;5035876;28;20217;-63
2022/03/15 06:34:01;;;;;;;60.38;34.88;;;;;;;;;;5051948;28;20170;-63
2022/03/15 06:36:29;;;;;;;44.42;28.83;;;;;;;;;;5052369;28;20128;-62
2022/03/15 06:38:55;;;;;;;43.90;27.30;;;;;;;;;;5051257;28;20056;-62
2022/03/15 06:41:21;;;;;;;60.40;34.95;;;;;;;;;;5052546;28;20052;-63
2022/03/15 06:43:47;;;;;;;51.38;31.33;;;;;;;;;;5034378;28;20049;-64
2022/03/15 06:46:14;;;;;;;52.45;31.52;;;;;;;;;;5052043;28;20037;-63
2022/03/15 06:48:41;;;;;;;47.97;29.55;;;;;;;;;;5050462;28;20041;-64
2022/03/15 06:51:07;;;;;;;56.88;33.60;;;;;;;;;;5047549;28;20112;-67
2022/03/15 06:53:33;;;;;;;58.53;33.58;;;;;;;;;;5050938;28;20033;-63
2022/03/15 06:55:59;;;;;;;43.13;29.98;;;;;;;;;;5051307;28;20037;-63
2022/03/15 06:58:25;;;;;;;60.53;35.58;;;;;;;;;;5051596;28;20087;-63
2022/03/15 07:00:54;;;;;;;46.67;30.98;;;;;;;;;;5052253;28;20124;-59
2022/03/15 07:03:20;;;;;;;45.10;28.90;;;;;;;;;;5051621;28;20454;-63
2022/03/15 07:05:46;;;;;;;56.35;34.33;;;;;;;;;;5033689;28;20044;-61
2022/03/15 07:08:12;;;;;;;45.95;30.58;;;;;;;;;;5051643;28;20040;-61
2022/03/15 07:10:38;;;;;;;58.75;35.72;;;;;;;;;;5051812;28;20037;-61
2022/03/15 07:13:04;;;;;;;60.05;35.97;;;;;;;;;;5051325;28;20490;-61
2022/03/15 07:15:30;;;;;;;54.80;34.30;;;;;;;;;;5051934;28;20039;-61
2022/03/15 07:17:57;;;;;;;46.95;30.95;;;;;;;;;;5033613;28;20049;-61
2022/03/15 07:20:24;;;;;;;51.67;33.05;;;;;;;;;;5051852;28;20060;-60
2022/03/15 07:22:51;;;;;;;52.13;33.97;;;;;;;;;;5051176;28;20072;-60
2022/03/15 07:25:17;;;;;;;55.63;33.78;;;;;;;;;;5051532;28;20047;-61
2022/03/15 07:27:44;;;;;;;51.60;32.30;;;;;;;;;;5051772;28;20052;-60
2022/03/15 07:30:10;;;;;;;56.03;35.50;;;;;;;;;;5051326;28;20037;-59
2022/03/15 07:32:37;;;;;;;50.97;32.85;;;;;;;;;;5051242;28;20041;-59
2022/03/15 07:35:03;;;;;;;58.72;36.10;;;;;;;;;;5051552;28;20029;-65
2022/03/15 07:37:29;;;;;;;56.03;35.10;;;;;;;;;;5051239;28;20064;-61
2022/03/15 07:39:55;;;;;;;55.55;35.38;;;;;;;;;;5050794;28;20041;-59
2022/03/15 07:42:23;;;;;;;56.53;36.80;;;;;;;;;;5049335;28;20033;-61
2022/03/15 07:44:49;;;;;;;59.20;36.38;;;;;;;;;;5046676;28;20137;-60
2022/03/15 07:47:15;;;;;;;55.15;35.67;;;;;;;;;;5048615;28;20536;-62
2022/03/15 07:49:42;;;;;;;48.75;32.42;;;;;;;;;;5050704;28;20499;-62
2022/03/15 07:52:09;;;;;;;47.47;34.45;;;;;;;;;;5055313;28;20062;-62
2022/03/15 07:54:35;;;;;;;47.17;33.55;;;;;;;;;;5055147;28;20040;-61
2022/03/15 07:57:01;;;;;;;51.95;35.60;;;;;;;;;;5055066;28;20077;-63
2022/03/15 07:59:28;;;;;;;48.65;32.97;;;;;;;;;;5054437;28;20033;-62
2022/03/15 08:01:54;;;;;;;44.53;32.13;;;;;;;;;;5054856;28;20408;-62
2022/03/15 08:04:20;;;;;;;50.80;33.17;;;;;;;;;;5036948;28;20435;-63
2022/03/15 08:06:47;;;;;;;54.60;34.85;;;;;;;;;;5055078;28;20045;-62
2022/03/15 08:09:14;;;;;;;50.28;36.13;;;;;;;;;;5054318;28;20048;-63
2022/03/15 08:11:41;;;;;;;45.40;32.03;;;;;;;;;;5055489;28;20041;-66
2022/03/15 08:14:09;;;;;;;51.85;35.58;;;;;;;;;;5054764;28;20052;-61
2022/03/15 08:16:35;;;;;;;42.20;29.63;;;;;;;;;;5054418;28;20146;-61
2022/03/15 08:19:01;;;;;;;47.25;33.88;;;;;;;;;;5047332;28;20048;-61
2022/03/15 08:21:28;;;;;;;43.33;30.70;;;;;;;;;;5046372;28;20041;-59
2022/03/15 08:23:54;;;;;;;38.05;29.42;;;;;;;;;;5018471;28;20072;-62
2022/03/15 08:26:21;;;;;;;42.08;30.83;;;;;;;;;;5051310;28;20128;-59
2022/03/15 08:28:48;;;;;;;46.30;31.27;;;;;;;;;;5053603;28;20033;-60
2022/03/15 08:31:14;;;;;;;45.05;29.95;;;;;;;;;;5052545;28;20467;-66
2022/03/15 08:33:40;;;;;;;49.20;31.13;;;;;;;;;;5052586;28;20037;-60
2022/03/15 08:36:07;;;;;;;40.22;29.88;;;;;;;;;;5048821;28;20094;-60
2022/03/15 08:38:34;;;;;;;42.33;28.40;;;;;;;;;;5054153;28;20604;-63
2022/03/15 08:41:00;;;;;;;38.30;27.67;;;;;;;;;;5047051;28;20433;-62
2022/03/15 08:43:27;;;;;;;38.00;28.48;;;;;;;;;;5053206;28;20040;-63
2022/03/15 08:45:53;;;;;;;41.88;27.75;;;;;;;;;;5054931;28;20119;-60
2022/03/15 08:48:19;;;;;;;36.15;26.75;;;;;;;;;;5051707;28;20040;-61
2022/03/15 08:50:46;;;;;;;37.92;27.45;;;;;;;;;;5052652;28;20068;-63
2022/03/15 08:53:12;;;;;;;38.63;29.20;;;;;;;;;;5053916;28;20072;-61
2022/03/15 08:55:39;;;;;;;40.65;29.45;;;;;;;;;;5051709;28;20116;-61
2022/03/15 08:58:05;;;;;;;36.60;29.95;;;;;;;;;;5054998;28;20044;-60
2022/03/15 09:00:31;;;;;;;38.72;27.65;;;;;;;;;;5054735;28;20025;-60
2022/03/15 09:02:57;;;;;;;38.22;28.63;;;;;;;;;;5054086;28;20424;-59
2022/03/15 09:05:25;;;;;;;36.95;26.50;;;;;;;;;;5054886;28;20068;-62
2022/03/15 09:07:53;;;;;;;36.80;26.20;;;;;;;;;;5043642;28;20049;-60
2022/03/15 09:10:19;;;;;;;41.42;29.52;;;;;;;;;;5048033;28;20459;-62
2022/03/15 09:12:46;;;;;;;40.22;29.45;;;;;;;;;;5032858;28;20524;-60
2022/03/15 09:15:12;;;;;;;39.17;28.55;;;;;;;;;;5042372;28;20037;-63
2022/03/15 09:17:38;;;;;;;40.33;28.42;;;;;;;;;;5048475;28;20040;-62
2022/03/15 09:20:05;;;;;;;37.00;27.88;;;;;;;;;;5047602;28;20090;-62
2022/03/15 09:22:31;;;;;;;41.03;29.52;;;;;;;;;;5042879;28;20116;-62
2022/03/15 09:24:57;;;;;;;37.75;28.15;;;;;;;;;;5054557;28;20045;-62
2022/03/15 09:27:24;;;;;;;37.05;28.40;;;;;;;;;;5054613;28;20040;-63
2022/03/15 09:29:50;;;;;;;39.03;28.23;;;;;;;;;;5035541;28;20481;-63
2022/03/15 09:32:16;;;;;;;36.13;27.95;;;;;;;;;;5050793;28;20041;-62
2022/03/15 09:34:43;;;;;;;38.40;27.83;;;;;;;;;;5053007;28;20060;-63
2022/03/15 09:37:10;;;;;;;33.83;26.73;;;;;;;;;;5053584;28;20488;-63
2022/03/15 09:39:36;;;;;;;33.72;27.38;;;;;;;;;;5046537;28;20485;-63
2022/03/15 09:42:06;;;;;;;38.05;28.33;;;;;;;;;;5045861;28;20098;-62
2022/03/15 09:44:34;;;;;;;34.60;27.92;;;;;;;;;;5053405;28;20037;-62
2022/03/15 09:47:06;;;;;;;34.50;26.65;;;;;;;;;;5050818;28;20041;-62
2022/03/15 09:49:33;;;;;;;36.67;27.95;;;;;;;;;;5053767;28;20083;-63
2022/03/15 09:51:59;;;;;;;36.05;27.42;;;;;;;;;;5052906;28;20087;-63
2022/03/15 09:54:26;;;;;;;34.92;26.25;;;;;;;;;;5053436;28;20558;-63
2022/03/15 09:56:53;;;;;;;33.55;25.35;;;;;;;;;;5035202;28;20509;-63
2022/03/15 09:59:20;;;;;;;34.05;27.20;;;;;;;;;;5053874;28;20370;-63
2022/03/15 10:01:51;;;;;;;33.20;26.25;;;;;;;;;;5053321;28;20045;-63
2022/03/15 10:04:18;;;;;;;36.33;26.65;;;;;;;;;;5054284;28;20044;-62
2022/03/15 10:06:44;;;;;;;32.90;25.63;;;;;;;;;;5054575;28;20130;-63
2022/03/15 10:09:11;;;;;;;34.80;26.48;;;;;;;;;;5053382;28;20095;-63
2022/03/15 10:11:37;;;;;;;34.67;26.00;;;;;;;;;;5053340;28;20045;-61
2022/03/15 10:14:04;;;;;;;29.88;24.95;;;;;;;;;;5053462;28;20044;-62
2022/03/15 10:16:32;;;;;;;32.72;25.73;;;;;;;;;;5052443;28;20068;-62
2022/03/15 10:18:59;;;;;;;36.13;26.05;;;;;;;;;;5052461;28;20112;-63
2022/03/15 10:21:44;;;;;;;34.25;25.85;;;;;;;;;;5050055;28;20041;-63
2022/03/15 10:24:10;;;;;;;33.55;25.23;;;;;;;;;;5027704;28;20033;-63
2022/03/15 10:26:39;;;;;;;32.70;25.45;;;;;;;;;;5052299;28;20100;-62
2022/03/15 10:29:06;;;;;;;27.33;24.00;;;;;;;;;;5050413;28;20077;-63
2022/03/15 10:31:32;;;;;;;30.80;25.83;;;;;;;;;;5052944;28;20056;-62
2022/03/15 10:34:01;;;;;;;26.80;23.77;;;;;;;;;;5053901;28;20114;-63
2022/03/15 10:36:28;;;;;;;31.42;25.30;;;;;;;;;;5035827;28;20037;-63
2022/03/15 10:38:54;;;;;;;29.33;24.30;;;;;;;;;;5052616;28;20033;-63
2022/03/15 10:41:21;;;;;;;29.02;23.45;;;;;;;;;;5053361;28;20044;-64
2022/03/15 10:43:51;;;;;;;29.10;23.85;;;;;;;;;;5052831;28;20041;-64
2022/03/15 10:46:22;;;;;;;30.58;23.98;;;;;;;;;;5053642;28;20041;-64
2022/03/15 10:48:53;;;;;;;31.52;24.38;;;;;;;;;;5054263;28;20526;-64
2022/03/15 10:51:19;;;;;;;29.45;22.70;;;;;;;;;;5047311;28;20116;-63
2022/03/15 10:53:47;;;;;;;28.20;23.70;;;;;;;;;;5033792;28;20049;-63
2022/03/15 10:56:15;;;;;;;27.55;23.15;;;;;;;;;;5047214;28;20072;-62
2022/03/15 10:58:51;;;;;;;26.85;22.58;;;;;;;;;;5052252;28;20398;-62
2022/03/15 11:01:18;;;;;;;27.35;23.38;;;;;;;;;;5052781;28;20041;-62
2022/03/15 11:03:57;;;;;;;28.27;23.25;;;;;;;;;;5048660;28;20490;-63
2022/03/15 11:06:31;;;;;;;28.27;23.65;;;;;;;;;;5040922;28;20032;-63
2022/03/15 11:08:58;;;;;;;29.17;21.70;;;;;;;;;;5018275;28;20033;-63
2022/03/15 11:11:26;;;;;;;27.00;23.67;;;;;;;;;;5018948;28;20494;-63
2022/03/15 11:14:03;;;;;;;27.95;23.20;;;;;;;;;;5053286;28;20045;-64
2022/03/15 11:16:30;;;;;;;24.75;21.17;;;;;;;;;;5052952;28;20108;-65
2022/03/15 11:18:57;;;;;;;27.02;22.17;;;;;;;;;;5053013;28;20118;-66
2022/03/15 11:21:24;;;;;;;26.67;22.63;;;;;;;;;;5053025;28;20049;-66
2022/03/15 11:23:54;;;;;;;29.33;21.20;;;;;;;;;;5018767;28;20037;-66
2022/03/15 11:26:22;;;;;;;28.15;22.33;;;;;;;;;;5018053;28;20037;-66
2022/03/15 11:28:49;;;;;;;27.08;20.83;;;;;;;;;;5052980;28;20044;-66
2022/03/15 11:31:16;;;;;;;26.75;21.80;;;;;;;;;;5053003;28;20044;-66
2022/03/15 11:33:47;;;;;;;26.95;21.50;;;;;;;;;;5053055;28;20040;-66
2022/03/15 11:36:18;;;;;;;25.45;21.23;;;;;;;;;;5051342;28;20091;-65
2022/03/15 11:38:50;;;;;;;27.05;20.98;;;;;;;;;;5034944;28;20102;-66
2022/03/15 11:41:18;;;;;;;24.23;20.90;;;;;;;;;;5014129;28;20037;-65
2022/03/15 11:43:50;;;;;;;26.55;21.17;;;;;;;;;;5017720;28;20119;-62
2022/03/15 11:46:29;;;;;;;26.23;20.73;;;;;;;;;;5017859;28;20073;-63
2022/03/15 11:49:14;;;;;;;23.52;19.30;;;;;;;;;;5052738;28;20044;-63
2022/03/15 11:52:01;;;;;;;24.35;21.20;;;;;;;;;;5050006;28;20045;-63
2022/03/15 11:54:37;;;;;;;25.52;20.02;;;;;;;;;;5051177;28;20104;-63
2022/03/15 11:57:06;;;;;;;22.70;19.88;;;;;;;;;;5051629;28;20381;-63
2022/03/15 11:59:45;;;;;;;23.58;20.25;;;;;;;;;;5050746;28;20045;-63
2022/03/15 12:02:11;;;;;;;23.08;18.50;;;;;;;;;;5050475;28;20124;-64
2022/03/15 12:04:40;;;;;;;24.67;19.55;;;;;;;;;;5050875;28;20041;-63
2022/03/15 12:07:07;;;;;;;19.65;17.25;;;;;;;;;;5032531;28;20064;-63
2022/03/15 12:09:34;;;;;;;22.95;18.55;;;;;;;;;;5047397;28;20414;-63
2022/03/15 12:12:08;;;;;;;22.88;17.83;;;;;;;;;;5050102;28;20105;-63
2022/03/15 12:14:38;;;;;;;23.25;18.38;;;;;;;;;;5050856;28;20486;-63
2022/03/15 12:17:04;;;;;;;21.50;17.92;;;;;;;;;;5032996;28;20072;-63
2022/03/15 12:19:40;;;;;;;21.88;17.85;;;;;;;;;;5050304;28;20115;-64
2022/03/15 12:22:08;;;;;;;21.52;17.58;;;;;;;;;;5049624;28;20052;-64
2022/03/15 12:24:36;;;;;;;20.33;17.38;;;;;;;;;;5028949;28;20394;-63
2022/03/15 12:27:06;;;;;;;22.25;17.85;;;;;;;;;;5046476;28;20033;-64
2022/03/15 12:29:33;;;;;;;21.73;17.33;;;;;;;;;;5047998;28;20083;-63
2022/03/15 12:32:18;;;;;;;21.95;17.40;;;;;;;;;;5047544;28;20494;-62
2022/03/15 12:34:45;;;;;;;22.27;17.35;;;;;;;;;;5045633;28;20048;-63
2022/03/15 12:37:11;;;;;;;19.58;16.05;;;;;;;;;;5029584;28;20036;-62
2022/03/15 12:39:37;;;;;;;19.15;16.90;;;;;;;;;;5051053;28;20036;-63
2022/03/15 12:42:04;;;;;;;19.80;15.55;;;;;;;;;;5049895;28;20482;-66
2022/03/15 12:44:41;;;;;;;18.15;16.20;;;;;;;;;;5043563;28;20068;-66
2022/03/15 12:47:08;;;;;;;19.20;16.90;;;;;;;;;;5048326;28;20112;-67
2022/03/15 12:49:35;;;;;;;20.90;16.90;;;;;;;;;;5029488;28;20045;-66
2022/03/15 12:52:11;;;;;;;18.27;16.17;;;;;;;;;;5047536;28;20034;-67
2022/03/15 12:54:38;;;;;;;20.63;16.65;;;;;;;;;;5036187;28;20402;-66
2022/03/15 12:57:11;;;;;;;20.05;16.38;;;;;;;;;;5040046;28;20474;-66
2022/03/15 12:59:38;;;;;;;20.60;16.45;;;;;;;;;;5044855;28;20076;-65
2022/03/15 13:02:05;;;;;;;22.92;16.80;;;;;;;;;;5043184;28;20112;-65
2022/03/15 13:04:32;;;;;;;21.15;16.80;;;;;;;;;;5041303;28;20048;-65
2022/03/15 13:07:04;;;;;;;21.98;16.42;;;;;;;;;;5041216;28;20045;-65
2022/03/15 13:09:30;;;;;;;18.23;15.10;;;;;;;;;;5035340;28;20041;-65
2022/03/15 13:11:56;;;;;;;18.33;15.77;;;;;;;;;;5049631;28;20041;-65
2022/03/15 13:14:27;;;;;;;22.35;15.70;;;;;;;;;;5042998;28;20049;-66
2022/03/15 13:16:54;;;;;;;22.80;16.33;;;;;;;;;;5048375;28;20090;-67
2022/03/15 13:19:27;;;;;;;19.45;15.68;;;;;;;;;;5033458;28;20033;-67
2022/03/15 13:21:53;;;;;;;18.23;15.30;;;;;;;;;;5039583;28;20045;-67
2022/03/15 13:24:24;;;;;;;17.60;15.18;;;;;;;;;;5046208;28;20282;-63
2022/03/15 13:26:56;;;;;;;17.20;13.30;;;;;;;;;;5025781;28;20046;-65
2022/03/15 13:29:26;;;;;;;13.95;12.48;;;;;;;;;;5050129;28;20041;-64
2022/03/15 13:31:53;;;;;;;17.42;14.07;;;;;;;;;;5033016;28;20155;-64
2022/03/15 13:34:26;;;;;;;17.73;12.68;;;;;;;;;;5044200;28;20546;-67
2022/03/15 13:36:53;;;;;;;12.65;11.32;;;;;;;;;;5047615;28;20075;-63
2022/03/15 13:39:21;;;;;;;14.25;11.95;;;;;;;;;;5040627;28;20060;-65
2022/03/15 13:41:51;;;;;;;14.60;11.13;;;;;;;;;;5030213;28;20396;-64
2022/03/15 13:44:27;;;;;;;13.32;11.73;;;;;;;;;;5049322;28;20099;-64
2022/03/15 13:47:03;;;;;;;12.40;10.55;;;;;;;;;;5049757;28;20045;-64
2022/03/15 13:49:29;;;;;;;14.82;10.98;;;;;;;;;;5049436;28;20474;-65
2022/03/15 13:52:05;;;;;;;12.73;10.93;;;;;;;;;;5050746;28;20044;-64
2022/03/15 13:54:31;;;;;;;13.18;10.13;;;;;;;;;;5042549;28;20037;-65
2022/03/15 13:56:58;;;;;;;13.70;10.13;;;;;;;;;;5040780;28;20117;-64
2022/03/15 13:59:26;;;;;;;12.73;9.80;;;;;;;;;;5042060;28;20049;-65
2022/03/15 14:01:58;;;;;;;13.45;11.15;;;;;;;;;;5046441;28;20068;-65
2022/03/15 14:04:29;;;;;;;13.45;10.63;;;;;;;;;;5047780;28;20095;-65
2022/03/15 14:07:01;;;;;;;11.13;9.85;;;;;;;;;;5043485;28;20043;-65
2022/03/15 14:09:28;;;;;;;11.95;9.93;;;;;;;;;;5052436;28;20045;-65
2022/03/15 14:12:08;;;;;;;10.32;9.07;;;;;;;;;;5051493;28;20044;-65
2022/03/15 14:14:51;;;;;;;11.07;9.10;;;;;;;;;;5051593;28;20116;-65
2022/03/15 14:17:26;;;;;;;10.40;8.57;;;;;;;;;;5033021;28;20053;-65
2022/03/15 14:19:55;;;;;;;12.00;8.70;;;;;;;;;;5049705;28;20069;-67
2022/03/15 14:22:23;;;;;;;13.15;9.73;;;;;;;;;;5047292;28;20033;-65
2022/03/15 14:24:50;;;;;;;13.50;8.85;;;;;;;;;;5052280;28;20482;-66